createdAt,value
2022-10-21T00:02:39.129Z,100118.53
2022-10-21T00:07:40.799Z,100115.34
2022-10-21T00:12:42.405Z,100121.53
2022-10-21T00:17:43.915Z,100127.59
2022-10-21T00:22:45.610Z,100136.88
2022-10-21T00:27:47.119Z,100146.06
2022-10-21T00:32:48.590Z,100140.00
2022-10-21T00:37:50.070Z,100145.13
2022-10-21T00:42:51.494Z,100141.84
2022-10-21T00:48:02.454Z,100115.66
2022-10-21T00:53:06.700Z,100073.72
2022-10-21T00:58:08.424Z,100073.31
2022-10-21T01:03:09.911Z,100057.09
2022-10-21T01:08:11.427Z,100044.84
2022-10-21T01:13:18.806Z,100026.03
2022-10-21T01:18:53.351Z,100017.66
2022-10-21T01:24:39.987Z,99989.22
2022-10-21T01:29:56.859Z,99986.56
2022-10-21T01:35:11.314Z,99992.81
2022-10-21T01:40:28.739Z,99985.41
2022-10-21T01:45:36.200Z,99967.84
2022-10-21T01:50:44.327Z,99965.66
2022-10-21T01:55:49.175Z,99973.06
2022-10-21T02:00:53.815Z,99968.59
2022-10-21T02:05:55.381Z,99957.34
2022-10-21T02:11:01.881Z,99943.59
2022-10-21T02:16:09.095Z,99923.91
2022-10-21T02:21:17.691Z,99919.69
2022-10-21T02:26:20.636Z,99903.63
2022-10-21T02:31:22.030Z,99900.59
2022-10-21T02:36:38.647Z,99885.31
2022-10-21T02:41:41.937Z,99874.97
2022-10-21T02:46:46.654Z,99876.59
2022-10-21T02:51:48.099Z,99879.88
2022-10-21T02:56:49.631Z,99876.41
2022-10-21T03:01:51.200Z,99867.06
2022-10-21T03:06:52.887Z,99868.00
2022-10-21T03:11:54.337Z,99853.53
2022-10-21T03:16:55.846Z,99858.66
2022-10-21T03:21:57.334Z,99851.03
2022-10-21T03:26:58.852Z,99855.34
2022-10-21T03:32:00.295Z,99855.34
2022-10-21T03:37:01.851Z,99863.22
2022-10-21T03:42:03.335Z,99861.38
2022-10-21T03:47:04.808Z,99856.91
2022-10-21T03:52:06.421Z,99862.75
2022-10-21T03:57:07.962Z,99875.50
2022-10-21T04:02:09.452Z,99868.53
2022-10-21T04:07:10.906Z,99860.84
2022-10-21T04:12:12.776Z,99863.31
2022-10-21T04:17:14.359Z,99854.22
2022-10-21T04:22:15.891Z,99857.53
2022-10-21T04:27:17.359Z,99857.38
2022-10-21T04:32:18.786Z,99848.94
2022-10-21T04:37:20.254Z,99865.16
2022-10-21T04:42:21.877Z,99875.41
2022-10-21T04:47:23.435Z,99878.06
2022-10-21T04:52:25.061Z,99877.84
2022-10-21T04:57:26.731Z,99870.53
2022-10-21T05:02:28.232Z,99873.19
2022-10-21T05:07:29.746Z,99867.97
2022-10-21T05:12:31.262Z,99861.09
2022-10-21T05:17:32.742Z,99854.16
2022-10-21T05:22:34.173Z,99852.56
2022-10-21T05:27:35.696Z,99844.06
2022-10-21T05:32:37.785Z,99838.94
2022-10-21T05:37:39.653Z,99819.97
2022-10-21T05:42:41.315Z,99824.00
2022-10-21T05:47:43.355Z,99815.22
2022-10-21T05:52:44.843Z,99809.34
2022-10-21T05:57:46.645Z,99815.59
2022-10-21T06:02:48.165Z,99810.81
2022-10-21T06:07:49.605Z,99806.97
2022-10-21T06:12:51.115Z,99789.34
2022-10-21T06:17:52.637Z,99808.19
2022-10-21T06:22:54.218Z,99799.44
2022-10-21T06:27:55.745Z,99831.50
2022-10-21T06:32:57.266Z,99847.28
2022-10-21T06:37:58.820Z,99857.34
2022-10-21T06:43:00.409Z,99837.31
2022-10-21T06:48:02.188Z,99832.19
2022-10-21T06:53:04.397Z,99822.25
2022-10-21T06:58:05.890Z,99825.66
2022-10-21T07:03:07.450Z,99844.72
2022-10-21T07:08:11.917Z,99860.22
2022-10-21T07:13:14.417Z,99882.88
2022-10-21T07:18:16.003Z,99860.31
2022-10-21T07:23:17.846Z,99866.72
2022-10-21T07:28:19.412Z,99859.03
2022-10-21T07:33:20.912Z,99865.72
2022-10-21T07:38:22.986Z,99873.34
2022-10-21T07:43:25.040Z,99867.41
2022-10-21T07:48:26.675Z,99886.03
2022-10-21T07:53:30.871Z,99869.69
2022-10-21T07:58:32.840Z,99896.47
2022-10-21T08:03:34.433Z,99908.00
2022-10-21T08:08:36.834Z,99892.97
2022-10-21T08:13:41.582Z,99915.72
2022-10-21T08:18:43.451Z,99919.66
2022-10-21T08:23:45.323Z,99945.25
2022-10-21T08:28:47.023Z,99953.06
2022-10-21T08:33:49.110Z,99949.28
2022-10-21T08:38:51.126Z,99966.75
2022-10-21T08:43:54.413Z,99949.47
2022-10-21T08:49:06.059Z,99973.41
2022-10-21T08:54:17.688Z,99964.16
2022-10-21T08:59:24.916Z,99980.03
2022-10-21T09:04:44.239Z,99980.19
2022-10-21T09:10:07.852Z,99973.31
2022-10-21T09:15:33.153Z,99973.31
2022-10-21T09:20:56.004Z,99963.31
2022-10-21T09:26:07.981Z,99983.41
2022-10-21T09:31:17.977Z,99994.41
2022-10-21T09:36:35.494Z,99996.88
2022-10-21T09:41:41.454Z,99997.69
2022-10-21T09:46:46.131Z,100003.72
2022-10-21T09:51:49.549Z,100002.28
2022-10-21T10:16:17.066Z,99993.81
2022-10-21T10:21:21.121Z,99997.38
2022-10-21T10:26:42.410Z,100010.78
2022-10-21T10:31:51.188Z,100019.06
2022-10-21T10:37:01.858Z,100014.78
2022-10-21T10:42:03.638Z,100002.94
2022-10-21T10:47:08.112Z,100004.28
2022-10-21T10:52:09.546Z,99993.75
2022-10-21T10:57:39.203Z,99989.91
2022-10-21T11:03:13.655Z,99994.66
2022-10-21T11:08:30.756Z,99985.53
2022-10-21T11:13:38.813Z,99992.31
2022-10-21T11:18:49.509Z,99991.56
2022-10-21T11:24:14.371Z,99990.44
2022-10-21T11:29:34.620Z,99991.66
2022-10-21T11:34:48.335Z,99984.75
2022-10-21T11:40:19.590Z,99980.84
2022-10-21T11:45:21.588Z,99970.78
2022-10-21T11:50:45.294Z,99977.97
2022-10-21T11:56:17.465Z,99985.59
2022-10-21T12:01:42.156Z,99980.78
2022-10-21T12:07:11.194Z,99987.72
2022-10-21T12:12:16.690Z,99979.97
2022-10-21T12:17:20.905Z,99969.06
2022-10-21T12:22:26.151Z,99979.31
2022-10-21T12:27:35.362Z,99966.59
2022-10-21T12:33:04.523Z,99954.41
2022-10-21T12:38:21.289Z,99955.13
2022-10-21T12:43:28.653Z,99955.69
2022-10-21T12:48:35.591Z,99955.47
2022-10-21T12:54:03.264Z,99959.38
2022-10-21T12:59:07.107Z,99938.69
2022-10-21T13:04:33.731Z,99940.47
2022-10-21T13:09:38.419Z,99944.56
2022-10-21T13:14:42.117Z,99948.78
2022-10-21T13:19:44.819Z,99967.34
2022-10-21T13:24:47.262Z,99958.56
2022-10-21T13:35:21.553Z,99957.81
2022-10-21T13:40:28.907Z,99953.47
2022-10-21T13:45:36.087Z,99956.16
2022-10-21T13:50:43.602Z,99948.19
2022-10-21T13:56:02.899Z,99935.47
2022-10-21T14:01:10.298Z,99935.69
2022-10-21T14:06:18.748Z,99929.25
2022-10-21T14:11:23.543Z,99925.56
2022-10-21T14:16:35.664Z,99932.09
2022-10-21T14:21:44.762Z,99946.72
2022-10-21T14:26:46.620Z,99935.78
2022-10-21T14:31:48.117Z,99931.63
2022-10-21T14:37:18.313Z,99929.34
2022-10-21T14:42:23.852Z,99931.72
2022-10-21T14:47:27.345Z,99936.59
2022-10-21T14:52:28.789Z,99935.56
2022-10-21T14:57:45.194Z,99933.34
2022-10-21T15:02:46.980Z,99930.13
2022-10-21T15:07:48.474Z,99927.75
2022-10-21T15:12:52.815Z,99921.88
2022-10-21T15:18:03.948Z,99935.94
2022-10-21T15:23:19.956Z,99937.31
2022-10-21T15:28:23.326Z,99936.16
2022-10-21T15:33:25.156Z,99942.59
2022-10-21T15:38:26.592Z,99931.84
2022-10-21T15:43:28.322Z,99928.97
2022-10-21T15:48:29.849Z,99939.00
2022-10-21T15:53:31.253Z,99940.44
2022-10-21T15:58:32.696Z,99934.25
2022-10-21T16:03:34.157Z,99939.59
2022-10-21T16:08:35.663Z,99931.56
2022-10-21T16:13:37.151Z,99937.22
2022-10-21T16:18:38.587Z,99944.59
2022-10-21T16:23:40.443Z,99946.13
2022-10-21T16:28:42.223Z,99956.09
2022-10-21T16:33:44.053Z,99941.16
2022-10-21T16:38:47.098Z,99945.25
2022-10-21T16:43:48.566Z,99940.81
2022-10-21T16:48:50.190Z,99945.91
2022-10-21T16:53:51.654Z,99945.00
2022-10-21T16:58:53.673Z,99941.25
2022-10-21T17:03:55.090Z,99943.56
2022-10-21T17:08:57.000Z,99937.00
2022-10-21T17:13:59.296Z,99936.34
2022-10-21T17:19:00.734Z,99934.25
2022-10-21T17:24:02.886Z,99936.44
2022-10-21T17:29:04.330Z,99936.81
2022-10-21T17:34:07.585Z,99937.38
2022-10-21T17:39:09.119Z,99945.56
2022-10-21T17:44:13.675Z,99946.06
2022-10-21T17:49:15.410Z,99943.97
2022-10-21T17:54:21.445Z,99939.38
2022-10-21T17:59:26.748Z,99935.53
2022-10-21T18:04:28.671Z,99935.47
2022-10-21T18:09:30.182Z,99935.00
2022-10-21T18:14:31.609Z,99943.84
2022-10-21T18:19:33.924Z,99945.13
2022-10-21T18:24:35.350Z,99941.16
2022-10-21T18:29:36.915Z,99946.72
2022-10-21T18:34:38.322Z,99949.06
2022-10-21T18:39:39.802Z,99939.31
2022-10-21T18:44:41.560Z,99937.09
2022-10-21T18:49:43.032Z,99951.81
2022-10-21T18:54:44.408Z,99957.78
2022-10-21T18:59:45.879Z,99963.72
2022-10-21T19:04:48.252Z,99970.59
2022-10-21T19:09:49.923Z,99963.56
2022-10-21T19:14:51.396Z,99960.91
2022-10-21T19:19:52.999Z,99954.22
2022-10-21T19:24:54.440Z,99951.81
2022-10-21T19:29:55.893Z,99949.19
2022-10-21T19:34:57.361Z,99933.47
2022-10-21T19:39:58.899Z,99938.28
2022-10-21T19:45:00.355Z,99950.66
2022-10-21T19:50:02.232Z,99970.25
2022-10-21T19:55:04.067Z,99976.13
2022-10-21T20:00:05.920Z,99982.81
2022-10-21T20:05:08.339Z,99986.03
2022-10-21T20:10:09.907Z,99984.97
2022-10-21T20:15:11.352Z,99985.56
2022-10-21T20:20:12.806Z,99993.25
2022-10-21T20:25:14.204Z,99997.47
2022-10-21T20:30:15.719Z,100011.84
2022-10-21T20:35:17.142Z,100008.53
2022-10-21T20:40:20.365Z,100004.16
2022-10-21T20:45:21.912Z,100017.63
2022-10-21T20:50:23.356Z,100005.66
2022-10-21T20:55:24.825Z,100017.63
2022-10-21T21:00:26.292Z,100005.72
2022-10-21T21:05:27.779Z,100006.72
2022-10-21T21:10:30.225Z,100021.25
2022-10-21T21:15:31.700Z,99988.22
2022-10-21T21:20:33.126Z,99962.38
2022-10-21T21:25:34.549Z,99975.75
2022-10-21T21:30:35.965Z,99972.78
2022-10-21T21:35:37.962Z,99956.81
2022-10-21T21:40:39.470Z,99946.13
2022-10-21T21:45:44.100Z,99935.19
2022-10-21T21:50:46.189Z,99859.91
2022-10-21T21:55:47.717Z,99894.97
2022-10-21T22:00:49.121Z,99949.25
2022-10-21T22:05:50.580Z,99928.63
2022-10-21T22:10:52.026Z,99949.84
2022-10-21T22:15:53.633Z,99932.06
2022-10-21T22:20:58.462Z,99972.16
2022-10-21T22:26:00.078Z,99973.59
2022-10-21T22:31:13.455Z,99991.56
2022-10-21T22:36:16.667Z,100009.63
2022-10-21T22:41:18.294Z,99984.13
2022-10-21T22:46:35.271Z,99986.41
2022-10-21T22:51:36.761Z,100028.00
2022-10-21T22:56:38.690Z,100023.31
2022-10-21T23:01:40.107Z,100039.53
2022-10-21T23:06:41.645Z,100055.84
2022-10-21T23:11:43.150Z,100070.53
2022-10-21T23:16:44.599Z,100072.06
2022-10-21T23:21:45.987Z,100097.72
2022-10-21T23:26:47.657Z,100091.06
2022-10-21T23:31:49.097Z,100064.50
2022-10-21T23:36:50.544Z,100099.69
2022-10-21T23:41:51.975Z,100065.75
2022-10-21T23:46:53.383Z,100064.25
2022-10-21T23:51:54.876Z,100072.19
2022-10-21T23:56:56.326Z,100063.88
